Terminal Aerodrome Forecast
Issued by NWS

Home | Current Version | Previous Version | Text Only | Print | Product List | Glossary On
Versions: 1 2 3 4 5 6 7 8 9 10 11 12 13 14 15 16 17 18 19 20 21 22 23 24 25 26 27 28
000
FTUS43 KDMX 182135 AAA
TAFMCW
TAF AMD
KMCW 182135Z 1822/1918 12012KT P6SM VCSH SCT040 OVC080
      TEMPO 1822/1824 3SM -TSRA BR SCT030 OVC060CB
     FM190200 12012KT 5SM RA BKN025 OVC040
     FM191000 14014KT 4SM RA BR SCT006 BKN015
     FM191500 18010KT 2SM -RA BKN009 OVC015=

USA.gov is the U.S. government's official web portal to all federal, state and local government web resources and services.